sensor_id;sensor_type;location;lat;lon;timestamp;P1;durP1;ratioP1;P2;durP2;ratioP2
15915;SDS011;8057;47.830;-3.870;2022-08-11T00:00:49;4.37;;;3.00;;
15915;SDS011;8057;47.830;-3.870;2022-08-11T00:05:00;3.47;;;2.90;;
15915;SDS011;8057;47.830;-3.870;2022-08-11T00:09:12;3.23;;;2.80;;
15915;SDS011;8057;47.830;-3.870;2022-08-11T00:13:30;4.87;;;3.10;;
15915;SDS011;8057;47.830;-3.870;2022-08-11T00:17:42;4.40;;;3.10;;
15915;SDS011;8057;47.830;-3.870;2022-08-11T00:21:52;4.90;;;3.20;;
15915;SDS011;8057;47.830;-3.870;2022-08-11T00:26:11;3.93;;;3.27;;
15915;SDS011;8057;47.830;-3.870;2022-08-11T00:30:21;3.73;;;2.80;;
15915;SDS011;8057;47.830;-3.870;2022-08-11T00:34:32;2.97;;;2.67;;
15915;SDS011;8057;47.830;-3.870;2022-08-11T00:38:44;5.33;;;3.37;;
15915;SDS011;8057;47.830;-3.870;2022-08-11T00:43:00;3.40;;;3.10;;
15915;SDS011;8057;47.830;-3.870;2022-08-11T00:47:27;4.67;;;3.30;;
15915;SDS011;8057;47.830;-3.870;2022-08-11T00:51:59;3.93;;;2.70;;
15915;SDS011;8057;47.830;-3.870;2022-08-11T00:56:37;5.53;;;2.90;;
15915;SDS011;8057;47.830;-3.870;2022-08-11T01:01:33;4.37;;;2.83;;
15915;SDS011;8057;47.830;-3.870;2022-08-11T01:05:59;7.17;;;3.20;;
15915;SDS011;8057;47.830;-3.870;2022-08-11T01:10:32;4.47;;;3.13;;
15915;SDS011;8057;47.830;-3.870;2022-08-11T01:15:14;7.47;;;3.17;;
15915;SDS011;8057;47.830;-3.870;2022-08-11T01:20:01;3.37;;;2.80;;
15915;SDS011;8057;47.830;-3.870;2022-08-11T01:44:44;2.73;;;2.43;;
15915;SDS011;8057;47.830;-3.870;2022-08-11T01:49:16;4.40;;;3.23;;
15915;SDS011;8057;47.830;-3.870;2022-08-11T01:53:54;3.43;;;2.73;;
15915;SDS011;8057;47.830;-3.870;2022-08-11T01:58:11;3.97;;;3.33;;
15915;SDS011;8057;47.830;-3.870;2022-08-11T02:02:47;3.23;;;2.90;;
15915;SDS011;8057;47.830;-3.870;2022-08-11T02:07:09;4.97;;;3.10;;
15915;SDS011;8057;47.830;-3.870;2022-08-11T02:11:25;3.97;;;2.97;;
15915;SDS011;8057;47.830;-3.870;2022-08-11T02:15:43;3.17;;;2.87;;
15915;SDS011;8057;47.830;-3.870;2022-08-11T02:19:59;3.20;;;2.90;;
15915;SDS011;8057;47.830;-3.870;2022-08-11T02:24:33;3.10;;;2.63;;
15915;SDS011;8057;47.830;-3.870;2022-08-11T02:28:52;3.70;;;2.97;;
15915;SDS011;8057;47.830;-3.870;2022-08-11T02:33:15;4.80;;;3.30;;
15915;SDS011;8057;47.830;-3.870;2022-08-11T02:37:36;3.77;;;3.43;;
15915;SDS011;8057;47.830;-3.870;2022-08-11T02:41:56;5.67;;;3.23;;
15915;SDS011;8057;47.830;-3.870;2022-08-11T02:46:48;3.90;;;3.43;;
15915;SDS011;8057;47.830;-3.870;2022-08-11T02:51:11;4.50;;;2.77;;
15915;SDS011;8057;47.830;-3.870;2022-08-11T02:55:31;3.30;;;2.87;;
15915;SDS011;8057;47.830;-3.870;2022-08-11T03:00:04;5.20;;;3.30;;
15915;SDS011;8057;47.830;-3.870;2022-08-11T03:04:17;5.17;;;2.80;;
15915;SDS011;8057;47.830;-3.870;2022-08-11T03:08:44;3.10;;;2.80;;
15915;SDS011;8057;47.830;-3.870;2022-08-11T03:13:03;2.87;;;2.67;;
15915;SDS011;8057;47.830;-3.870;2022-08-11T03:17:40;3.33;;;3.13;;
15915;SDS011;8057;47.830;-3.870;2022-08-11T03:22:01;2.97;;;2.77;;
15915;SDS011;8057;47.830;-3.870;2022-08-11T03:26:21;5.03;;;3.00;;
15915;SDS011;8057;47.830;-3.870;2022-08-11T03:30:41;3.50;;;3.20;;
15915;SDS011;8057;47.830;-3.870;2022-08-11T03:34:55;3.07;;;2.83;;
15915;SDS011;8057;47.830;-3.870;2022-08-11T03:39:08;3.43;;;3.03;;
15915;SDS011;8057;47.830;-3.870;2022-08-11T03:43:33;4.47;;;3.40;;
15915;SDS011;8057;47.830;-3.870;2022-08-11T03:48:09;4.37;;;3.20;;
15915;SDS011;8057;47.830;-3.870;2022-08-11T03:52:27;4.27;;;3.40;;
15915;SDS011;8057;47.830;-3.870;2022-08-11T04:06:39;4.70;;;3.00;;
15915;SDS011;8057;47.830;-3.870;2022-08-11T04:20:42;3.73;;;3.37;;
15915;SDS011;8057;47.830;-3.870;2022-08-11T04:25:19;4.20;;;2.90;;
15915;SDS011;8057;47.830;-3.870;2022-08-11T04:29:44;4.50;;;3.20;;
15915;SDS011;8057;47.830;-3.870;2022-08-11T04:38:57;3.73;;;3.20;;
15915;SDS011;8057;47.830;-3.870;2022-08-11T04:43:27;3.83;;;3.30;;
15915;SDS011;8057;47.830;-3.870;2022-08-11T04:48:31;5.20;;;2.93;;
15915;SDS011;8057;47.830;-3.870;2022-08-11T04:53:41;3.87;;;3.03;;
15915;SDS011;8057;47.830;-3.870;2022-08-11T04:58:20;3.73;;;3.10;;
15915;SDS011;8057;47.830;-3.870;2022-08-11T05:07:51;5.40;;;3.20;;
15915;SDS011;8057;47.830;-3.870;2022-08-11T05:12:27;2.90;;;2.60;;
15915;SDS011;8057;47.830;-3.870;2022-08-11T05:16:44;3.17;;;2.93;;
15915;SDS011;8057;47.830;-3.870;2022-08-11T05:21:16;3.90;;;3.23;;
15915;SDS011;8057;47.830;-3.870;2022-08-11T05:25:51;5.53;;;2.90;;
15915;SDS011;8057;47.830;-3.870;2022-08-11T05:30:40;4.23;;;2.90;;
15915;SDS011;8057;47.830;-3.870;2022-08-11T05:35:08;4.20;;;3.10;;
15915;SDS011;8057;47.830;-3.870;2022-08-11T05:39:43;2.97;;;2.77;;
15915;SDS011;8057;47.830;-3.870;2022-08-11T05:44:15;3.20;;;2.90;;
15915;SDS011;8057;47.830;-3.870;2022-08-11T05:48:45;3.83;;;3.30;;
15915;SDS011;8057;47.830;-3.870;2022-08-11T05:53:14;3.87;;;3.17;;
15915;SDS011;8057;47.830;-3.870;2022-08-11T05:57:55;3.00;;;2.70;;
15915;SDS011;8057;47.830;-3.870;2022-08-11T06:02:07;5.70;;;3.20;;
15915;SDS011;8057;47.830;-3.870;2022-08-11T06:06:16;3.97;;;2.77;;
15915;SDS011;8057;47.830;-3.870;2022-08-11T06:10:25;3.03;;;2.70;;
15915;SDS011;8057;47.830;-3.870;2022-08-11T06:14:42;3.37;;;2.57;;
15915;SDS011;8057;47.830;-3.870;2022-08-11T06:18:53;4.47;;;2.80;;
15915;SDS011;8057;47.830;-3.870;2022-08-11T06:23:03;3.27;;;3.00;;
15915;SDS011;8057;47.830;-3.870;2022-08-11T06:27:17;4.07;;;3.27;;
15915;SDS011;8057;47.830;-3.870;2022-08-11T06:31:28;4.53;;;2.50;;
15915;SDS011;8057;47.830;-3.870;2022-08-11T06:35:45;2.83;;;2.50;;
15915;SDS011;8057;47.830;-3.870;2022-08-11T06:40:02;2.90;;;2.60;;
15915;SDS011;8057;47.830;-3.870;2022-08-11T06:44:18;3.00;;;2.60;;
15915;SDS011;8057;47.830;-3.870;2022-08-11T06:48:37;3.57;;;2.87;;
15915;SDS011;8057;47.830;-3.870;2022-08-11T06:52:46;4.23;;;2.63;;
15915;SDS011;8057;47.830;-3.870;2022-08-11T06:56:56;5.10;;;3.00;;
15915;SDS011;8057;47.830;-3.870;2022-08-11T07:01:40;4.00;;;2.50;;
15915;SDS011;8057;47.830;-3.870;2022-08-11T07:05:57;2.93;;;2.30;;
15915;SDS011;8057;47.830;-3.870;2022-08-11T07:10:27;2.87;;;2.43;;
15915;SDS011;8057;47.830;-3.870;2022-08-11T07:15:07;4.23;;;2.20;;
15915;SDS011;8057;47.830;-3.870;2022-08-11T07:19:56;3.03;;;2.57;;
15915;SDS011;8057;47.830;-3.870;2022-08-11T07:24:25;4.07;;;2.30;;
15915;SDS011;8057;47.830;-3.870;2022-08-11T07:29:09;3.20;;;2.30;;
15915;SDS011;8057;47.830;-3.870;2022-08-11T07:33:21;2.50;;;2.30;;
15915;SDS011;8057;47.830;-3.870;2022-08-11T07:38:00;2.53;;;2.33;;
15915;SDS011;8057;47.830;-3.870;2022-08-11T07:42:26;3.77;;;2.40;;
15915;SDS011;8057;47.830;-3.870;2022-08-11T07:46:38;2.37;;;2.17;;
15915;SDS011;8057;47.830;-3.870;2022-08-11T07:51:06;4.47;;;2.20;;
15915;SDS011;8057;47.830;-3.870;2022-08-11T07:55:32;4.20;;;2.27;;
15915;SDS011;8057;47.830;-3.870;2022-08-11T08:00:00;4.30;;;2.40;;
15915;SDS011;8057;47.830;-3.870;2022-08-11T08:04:26;3.40;;;2.13;;
15915;SDS011;8057;47.830;-3.870;2022-08-11T08:08:54;2.33;;;2.13;;
15915;SDS011;8057;47.830;-3.870;2022-08-11T08:13:20;3.40;;;1.90;;
15915;SDS011;8057;47.830;-3.870;2022-08-11T08:17:48;2.80;;;2.03;;
15915;SDS011;8057;47.830;-3.870;2022-08-11T08:22:18;2.30;;;2.10;;
15915;SDS011;8057;47.830;-3.870;2022-08-11T08:26:48;2.40;;;2.20;;
15915;SDS011;8057;47.830;-3.870;2022-08-11T08:31:07;2.40;;;1.80;;
15915;SDS011;8057;47.830;-3.870;2022-08-11T08:35:17;3.00;;;2.13;;
15915;SDS011;8057;47.830;-3.870;2022-08-11T08:39:27;3.67;;;2.10;;
15915;SDS011;8057;47.830;-3.870;2022-08-11T08:43:39;3.93;;;2.00;;
15915;SDS011;8057;47.830;-3.870;2022-08-11T08:47:56;3.63;;;2.23;;
15915;SDS011;8057;47.830;-3.870;2022-08-11T08:52:08;4.25;;;2.15;;
15915;SDS011;8057;47.830;-3.870;2022-08-11T08:56:38;2.70;;;1.87;;
15915;SDS011;8057;47.830;-3.870;2022-08-11T09:00:51;2.28;;;1.45;;
15915;SDS011;8057;47.830;-3.870;2022-08-11T09:05:02;2.60;;;2.05;;
15915;SDS011;8057;47.830;-3.870;2022-08-11T09:09:14;2.85;;;1.88;;
15915;SDS011;8057;47.830;-3.870;2022-08-11T09:13:24;4.18;;;2.13;;
15915;SDS011;8057;47.830;-3.870;2022-08-11T09:17:36;3.28;;;1.83;;
15915;SDS011;8057;47.830;-3.870;2022-08-11T09:21:47;2.25;;;1.90;;
15915;SDS011;8057;47.830;-3.870;2022-08-11T09:26:20;2.15;;;1.90;;
15915;SDS011;8057;47.830;-3.870;2022-08-11T09:30:48;2.42;;;1.83;;
15915;SDS011;8057;47.830;-3.870;2022-08-11T09:35:00;3.45;;;1.85;;
15915;SDS011;8057;47.830;-3.870;2022-08-11T09:39:10;2.47;;;1.73;;
15915;SDS011;8057;47.830;-3.870;2022-08-11T09:43:39;2.15;;;1.58;;
15915;SDS011;8057;47.830;-3.870;2022-08-11T09:48:18;2.78;;;1.70;;
15915;SDS011;8057;47.830;-3.870;2022-08-11T09:52:29;3.97;;;1.98;;
15915;SDS011;8057;47.830;-3.870;2022-08-11T09:56:39;3.70;;;2.00;;
15915;SDS011;8057;47.830;-3.870;2022-08-11T10:01:10;3.28;;;1.90;;
15915;SDS011;8057;47.830;-3.870;2022-08-11T10:05:34;2.25;;;1.95;;
15915;SDS011;8057;47.830;-3.870;2022-08-11T10:10:03;1.90;;;1.80;;
15915;SDS011;8057;47.830;-3.870;2022-08-11T10:14:13;3.22;;;1.85;;
15915;SDS011;8057;47.830;-3.870;2022-08-11T10:18:49;3.50;;;1.60;;
15915;SDS011;8057;47.830;-3.870;2022-08-11T10:23:00;2.08;;;1.70;;
15915;SDS011;8057;47.830;-3.870;2022-08-11T10:27:27;3.75;;;1.90;;
15915;SDS011;8057;47.830;-3.870;2022-08-11T10:31:56;2.22;;;1.67;;
15915;SDS011;8057;47.830;-3.870;2022-08-11T10:36:24;3.15;;;1.98;;
15915;SDS011;8057;47.830;-3.870;2022-08-11T10:40:35;2.83;;;2.00;;
15915;SDS011;8057;47.830;-3.870;2022-08-11T10:44:46;3.83;;;1.73;;
15915;SDS011;8057;47.830;-3.870;2022-08-11T10:48:59;5.40;;;2.20;;
15915;SDS011;8057;47.830;-3.870;2022-08-11T10:53:10;2.85;;;1.80;;
15915;SDS011;8057;47.830;-3.870;2022-08-11T10:57:39;2.38;;;1.83;;
15915;SDS011;8057;47.830;-3.870;2022-08-11T11:02:11;1.63;;;1.52;;
15915;SDS011;8057;47.830;-3.870;2022-08-11T11:06:22;2.08;;;1.80;;
15915;SDS011;8057;47.830;-3.870;2022-08-11T11:10:35;2.25;;;2.00;;
15915;SDS011;8057;47.830;-3.870;2022-08-11T11:14:49;3.92;;;1.70;;
15915;SDS011;8057;47.830;-3.870;2022-08-11T11:19:23;3.58;;;1.80;;
15915;SDS011;8057;47.830;-3.870;2022-08-11T11:23:36;2.10;;;1.48;;
15915;SDS011;8057;47.830;-3.870;2022-08-11T11:27:53;3.35;;;1.80;;
15915;SDS011;8057;47.830;-3.870;2022-08-11T11:32:19;2.75;;;1.77;;
15915;SDS011;8057;47.830;-3.870;2022-08-11T11:36:36;1.85;;;1.75;;
15915;SDS011;8057;47.830;-3.870;2022-08-11T11:40:52;2.00;;;1.90;;
15915;SDS011;8057;47.830;-3.870;2022-08-11T11:45:15;1.75;;;1.65;;
15915;SDS011;8057;47.830;-3.870;2022-08-11T11:49:31;4.32;;;1.80;;
15915;SDS011;8057;47.830;-3.870;2022-08-11T11:53:45;1.60;;;1.50;;
15915;SDS011;8057;47.830;-3.870;2022-08-11T11:57:55;2.28;;;1.95;;
15915;SDS011;8057;47.830;-3.870;2022-08-11T12:02:24;2.35;;;1.70;;
15915;SDS011;8057;47.830;-3.870;2022-08-11T12:06:35;4.10;;;1.73;;
15915;SDS011;8057;47.830;-3.870;2022-08-11T12:10:46;2.95;;;1.80;;
15915;SDS011;8057;47.830;-3.870;2022-08-11T12:14:55;1.55;;;1.42;;
15915;SDS011;8057;47.830;-3.870;2022-08-11T12:19:05;2.42;;;1.88;;
15915;SDS011;8057;47.830;-3.870;2022-08-11T12:23:18;3.63;;;1.83;;
15915;SDS011;8057;47.830;-3.870;2022-08-11T12:27:45;1.77;;;1.67;;
15915;SDS011;8057;47.830;-3.870;2022-08-11T12:31:54;2.22;;;1.77;;
15915;SDS011;8057;47.830;-3.870;2022-08-11T12:36:04;1.80;;;1.60;;
15915;SDS011;8057;47.830;-3.870;2022-08-11T12:40:17;2.95;;;1.75;;
15915;SDS011;8057;47.830;-3.870;2022-08-11T12:45:09;3.05;;;1.90;;
15915;SDS011;8057;47.830;-3.870;2022-08-11T12:49:35;1.92;;;1.80;;
15915;SDS011;8057;47.830;-3.870;2022-08-11T12:54:11;2.30;;;1.95;;
15915;SDS011;8057;47.830;-3.870;2022-08-11T12:58:25;4.15;;;2.22;;
15915;SDS011;8057;47.830;-3.870;2022-08-11T13:02:35;1.98;;;1.83;;
15915;SDS011;8057;47.830;-3.870;2022-08-11T13:07:01;4.15;;;2.00;;
15915;SDS011;8057;47.830;-3.870;2022-08-11T13:11:11;2.85;;;1.88;;
15915;SDS011;8057;47.830;-3.870;2022-08-11T13:16:01;2.13;;;1.85;;
15915;SDS011;8057;47.830;-3.870;2022-08-11T13:20:10;4.60;;;1.85;;
15915;SDS011;8057;47.830;-3.870;2022-08-11T13:24:20;5.95;;;1.90;;
15915;SDS011;8057;47.830;-3.870;2022-08-11T13:28:29;2.15;;;1.95;;
15915;SDS011;8057;47.830;-3.870;2022-08-11T13:32:43;2.00;;;1.80;;
15915;SDS011;8057;47.830;-3.870;2022-08-11T13:36:54;2.80;;;1.73;;
15915;SDS011;8057;47.830;-3.870;2022-08-11T13:41:05;2.60;;;2.05;;
15915;SDS011;8057;47.830;-3.870;2022-08-11T13:45:35;2.75;;;1.63;;
15915;SDS011;8057;47.830;-3.870;2022-08-11T13:49:45;2.67;;;1.98;;
15915;SDS011;8057;47.830;-3.870;2022-08-11T13:53:54;1.85;;;1.70;;
15915;SDS011;8057;47.830;-3.870;2022-08-11T13:58:08;1.77;;;1.67;;
15915;SDS011;8057;47.830;-3.870;2022-08-11T14:02:39;3.38;;;1.90;;
15915;SDS011;8057;47.830;-3.870;2022-08-11T14:06:52;2.42;;;1.90;;
15915;SDS011;8057;47.830;-3.870;2022-08-11T14:11:05;2.58;;;1.95;;
15915;SDS011;8057;47.830;-3.870;2022-08-11T14:15:52;2.00;;;1.80;;
15915;SDS011;8057;47.830;-3.870;2022-08-11T14:20:09;2.22;;;1.90;;
15915;SDS011;8057;47.830;-3.870;2022-08-11T14:24:43;2.03;;;1.90;;
15915;SDS011;8057;47.830;-3.870;2022-08-11T14:28:56;1.90;;;1.80;;
15915;SDS011;8057;47.830;-3.870;2022-08-11T14:33:09;3.72;;;2.10;;
15915;SDS011;8057;47.830;-3.870;2022-08-11T14:37:22;2.47;;;1.77;;
15915;SDS011;8057;47.830;-3.870;2022-08-11T14:41:36;3.28;;;2.53;;
15915;SDS011;8057;47.830;-3.870;2022-08-11T14:46:18;2.67;;;2.47;;
15915;SDS011;8057;47.830;-3.870;2022-08-11T14:50:53;3.45;;;2.63;;
15915;SDS011;8057;47.830;-3.870;2022-08-11T14:55:03;2.58;;;1.85;;
15915;SDS011;8057;47.830;-3.870;2022-08-11T14:59:33;4.47;;;2.00;;
15915;SDS011;8057;47.830;-3.870;2022-08-11T15:03:42;4.10;;;2.00;;
15915;SDS011;8057;47.830;-3.870;2022-08-11T15:08:13;5.72;;;2.55;;
15915;SDS011;8057;47.830;-3.870;2022-08-11T15:12:23;2.92;;;2.42;;
15915;SDS011;8057;47.830;-3.870;2022-08-11T15:16:40;3.53;;;2.20;;
15915;SDS011;8057;47.830;-3.870;2022-08-11T15:21:14;3.22;;;1.98;;
15915;SDS011;8057;47.830;-3.870;2022-08-11T15:25:42;3.47;;;1.90;;
15915;SDS011;8057;47.830;-3.870;2022-08-11T15:29:58;2.70;;;1.75;;
15915;SDS011;8057;47.830;-3.870;2022-08-11T15:34:40;2.53;;;1.80;;
15915;SDS011;8057;47.830;-3.870;2022-08-11T15:39:12;2.75;;;2.20;;
15915;SDS011;8057;47.830;-3.870;2022-08-11T15:43:27;4.40;;;2.10;;
15915;SDS011;8057;47.830;-3.870;2022-08-11T15:47:58;4.13;;;2.30;;
15915;SDS011;8057;47.830;-3.870;2022-08-11T15:52:18;3.53;;;2.30;;
15915;SDS011;8057;47.830;-3.870;2022-08-11T15:56:30;2.30;;;2.10;;
15915;SDS011;8057;47.830;-3.870;2022-08-11T16:00:40;2.22;;;2.03;;
15915;SDS011;8057;47.830;-3.870;2022-08-11T16:05:14;3.45;;;2.28;;
15915;SDS011;8057;47.830;-3.870;2022-08-11T16:09:47;3.92;;;2.20;;
15915;SDS011;8057;47.830;-3.870;2022-08-11T16:14:05;3.17;;;2.03;;
15915;SDS011;8057;47.830;-3.870;2022-08-11T16:18:34;2.85;;;1.90;;
15915;SDS011;8057;47.830;-3.870;2022-08-11T16:22:50;3.42;;;1.90;;
15915;SDS011;8057;47.830;-3.870;2022-08-11T16:27:09;2.42;;;1.90;;
15915;SDS011;8057;47.830;-3.870;2022-08-11T16:31:20;4.30;;;2.20;;
15915;SDS011;8057;47.830;-3.870;2022-08-11T16:35:31;3.55;;;1.90;;
15915;SDS011;8057;47.830;-3.870;2022-08-11T16:39:59;1.90;;;1.70;;
15915;SDS011;8057;47.830;-3.870;2022-08-11T16:44:09;2.40;;;2.00;;
15915;SDS011;8057;47.830;-3.870;2022-08-11T16:48:44;3.80;;;1.70;;
15915;SDS011;8057;47.830;-3.870;2022-08-11T16:52:55;3.20;;;1.95;;
15915;SDS011;8057;47.830;-3.870;2022-08-11T16:57:04;1.70;;;1.60;;
15915;SDS011;8057;47.830;-3.870;2022-08-11T17:01:34;3.85;;;1.95;;
15915;SDS011;8057;47.830;-3.870;2022-08-11T17:05:47;3.53;;;1.70;;
15915;SDS011;8057;47.830;-3.870;2022-08-11T17:10:17;3.70;;;1.95;;
15915;SDS011;8057;47.830;-3.870;2022-08-11T17:15:00;2.20;;;2.00;;
15915;SDS011;8057;47.830;-3.870;2022-08-11T17:19:34;2.38;;;1.80;;
15915;SDS011;8057;47.830;-3.870;2022-08-11T17:24:07;1.98;;;1.52;;
15915;SDS011;8057;47.830;-3.870;2022-08-11T17:28:20;2.50;;;1.88;;
15915;SDS011;8057;47.830;-3.870;2022-08-11T17:32:32;6.00;;;2.22;;
15915;SDS011;8057;47.830;-3.870;2022-08-11T17:37:07;1.92;;;1.65;;
15915;SDS011;8057;47.830;-3.870;2022-08-11T17:41:15;3.38;;;2.25;;
15915;SDS011;8057;47.830;-3.870;2022-08-11T17:45:44;3.33;;;1.88;;
15915;SDS011;8057;47.830;-3.870;2022-08-11T17:50:13;2.28;;;1.70;;
15915;SDS011;8057;47.830;-3.870;2022-08-11T17:54:25;4.88;;;1.77;;
15915;SDS011;8057;47.830;-3.870;2022-08-11T17:58:52;1.90;;;1.80;;
15915;SDS011;8057;47.830;-3.870;2022-08-11T18:03:20;3.45;;;2.00;;
15915;SDS011;8057;47.830;-3.870;2022-08-11T18:07:39;3.08;;;1.80;;
15915;SDS011;8057;47.830;-3.870;2022-08-11T18:12:08;2.85;;;1.98;;
15915;SDS011;8057;47.830;-3.870;2022-08-11T18:16:35;2.63;;;2.25;;
15915;SDS011;8057;47.830;-3.870;2022-08-11T18:21:01;2.22;;;1.95;;
15915;SDS011;8057;47.830;-3.870;2022-08-11T18:25:30;5.25;;;2.25;;
15915;SDS011;8057;47.830;-3.870;2022-08-11T18:29:59;1.95;;;1.85;;
15915;SDS011;8057;47.830;-3.870;2022-08-11T18:34:28;6.43;;;2.00;;
15915;SDS011;8057;47.830;-3.870;2022-08-11T18:38:57;3.20;;;2.22;;
15915;SDS011;8057;47.830;-3.870;2022-08-11T18:43:24;2.78;;;2.17;;
15915;SDS011;8057;47.830;-3.870;2022-08-11T18:47:54;2.65;;;2.00;;
15915;SDS011;8057;47.830;-3.870;2022-08-11T18:52:25;4.30;;;2.40;;
15915;SDS011;8057;47.830;-3.870;2022-08-11T18:56:53;2.85;;;2.35;;
15915;SDS011;8057;47.830;-3.870;2022-08-11T19:01:23;4.70;;;2.42;;
15915;SDS011;8057;47.830;-3.870;2022-08-11T19:05:53;4.55;;;2.63;;
15915;SDS011;8057;47.830;-3.870;2022-08-11T19:10:42;5.70;;;2.88;;
15915;SDS011;8057;47.830;-3.870;2022-08-11T19:15:09;8.40;;;3.05;;
15915;SDS011;8057;47.830;-3.870;2022-08-11T19:19:38;3.90;;;3.45;;
15915;SDS011;8057;47.830;-3.870;2022-08-11T19:24:07;3.97;;;3.60;;
15915;SDS011;8057;47.830;-3.870;2022-08-11T19:28:34;3.80;;;3.38;;
15915;SDS011;8057;47.830;-3.870;2022-08-11T19:33:03;6.45;;;3.47;;
15915;SDS011;8057;47.830;-3.870;2022-08-11T19:37:49;3.33;;;2.85;;
15915;SDS011;8057;47.830;-3.870;2022-08-11T19:42:18;3.03;;;2.72;;
15915;SDS011;8057;47.830;-3.870;2022-08-11T19:46:44;3.28;;;2.47;;
15915;SDS011;8057;47.830;-3.870;2022-08-11T19:51:12;5.50;;;2.92;;
15915;SDS011;8057;47.830;-3.870;2022-08-11T19:55:39;3.28;;;2.70;;
15915;SDS011;8057;47.830;-3.870;2022-08-11T20:00:09;4.00;;;3.20;;
15915;SDS011;8057;47.830;-3.870;2022-08-11T20:04:38;5.20;;;4.03;;
15915;SDS011;8057;47.830;-3.870;2022-08-11T20:09:04;4.97;;;4.50;;
15915;SDS011;8057;47.830;-3.870;2022-08-11T20:13:52;5.43;;;4.93;;
15915;SDS011;8057;47.830;-3.870;2022-08-11T20:18:21;7.93;;;4.20;;
15915;SDS011;8057;47.830;-3.870;2022-08-11T20:22:48;4.13;;;3.70;;
15915;SDS011;8057;47.830;-3.870;2022-08-11T20:27:17;4.70;;;4.30;;
15915;SDS011;8057;47.830;-3.870;2022-08-11T20:31:44;5.90;;;3.90;;
15915;SDS011;8057;47.830;-3.870;2022-08-11T20:36:16;3.70;;;3.27;;
15915;SDS011;8057;47.830;-3.870;2022-08-11T20:40:42;3.53;;;3.23;;
15915;SDS011;8057;47.830;-3.870;2022-08-11T20:45:10;5.07;;;3.40;;
15915;SDS011;8057;47.830;-3.870;2022-08-11T20:49:39;3.37;;;2.90;;
15915;SDS011;8057;47.830;-3.870;2022-08-11T20:54:10;5.93;;;3.33;;
15915;SDS011;8057;47.830;-3.870;2022-08-11T20:58:48;3.23;;;2.90;;
15915;SDS011;8057;47.830;-3.870;2022-08-11T21:03:24;3.07;;;2.70;;
15915;SDS011;8057;47.830;-3.870;2022-08-11T21:08:05;4.90;;;3.10;;
15915;SDS011;8057;47.830;-3.870;2022-08-11T21:12:35;5.47;;;3.00;;
15915;SDS011;8057;47.830;-3.870;2022-08-11T21:17:24;5.33;;;2.53;;
15915;SDS011;8057;47.830;-3.870;2022-08-11T21:22:12;3.43;;;2.67;;
15915;SDS011;8057;47.830;-3.870;2022-08-11T21:26:43;4.23;;;2.93;;
15915;SDS011;8057;47.830;-3.870;2022-08-11T21:31:13;3.87;;;2.70;;
15915;SDS011;8057;47.830;-3.870;2022-08-11T21:35:40;5.53;;;3.10;;
15915;SDS011;8057;47.830;-3.870;2022-08-11T21:40:07;2.63;;;2.43;;
15915;SDS011;8057;47.830;-3.870;2022-08-11T21:44:35;3.53;;;2.90;;
15915;SDS011;8057;47.830;-3.870;2022-08-11T21:49:04;2.97;;;2.40;;
15915;SDS011;8057;47.830;-3.870;2022-08-11T21:53:32;7.93;;;3.07;;
15915;SDS011;8057;47.830;-3.870;2022-08-11T21:57:59;3.17;;;2.43;;
15915;SDS011;8057;47.830;-3.870;2022-08-11T22:02:26;2.97;;;2.60;;
15915;SDS011;8057;47.830;-3.870;2022-08-11T22:07:00;5.70;;;2.90;;
15915;SDS011;8057;47.830;-3.870;2022-08-11T22:11:27;2.60;;;2.40;;
15915;SDS011;8057;47.830;-3.870;2022-08-11T22:16:13;2.93;;;2.73;;
15915;SDS011;8057;47.830;-3.870;2022-08-11T22:20:39;4.17;;;2.50;;
15915;SDS011;8057;47.830;-3.870;2022-08-11T22:25:08;4.40;;;3.00;;
15915;SDS011;8057;47.830;-3.870;2022-08-11T22:29:44;7.70;;;2.83;;
15915;SDS011;8057;47.830;-3.870;2022-08-11T22:34:10;2.73;;;2.53;;
15915;SDS011;8057;47.830;-3.870;2022-08-11T22:38:46;3.00;;;2.67;;
15915;SDS011;8057;47.830;-3.870;2022-08-11T22:43:15;3.10;;;2.80;;
15915;SDS011;8057;47.830;-3.870;2022-08-11T22:47:41;5.10;;;2.70;;
15915;SDS011;8057;47.830;-3.870;2022-08-11T22:52:11;2.83;;;2.53;;
15915;SDS011;8057;47.830;-3.870;2022-08-11T22:56:38;3.00;;;2.63;;
15915;SDS011;8057;47.830;-3.870;2022-08-11T23:01:07;5.43;;;2.70;;
15915;SDS011;8057;47.830;-3.870;2022-08-11T23:05:34;3.40;;;2.60;;
15915;SDS011;8057;47.830;-3.870;2022-08-11T23:10:02;3.60;;;2.67;;
15915;SDS011;8057;47.830;-3.870;2022-08-11T23:14:28;4.10;;;2.70;;
15915;SDS011;8057;47.830;-3.870;2022-08-11T23:18:57;4.53;;;2.70;;
15915;SDS011;8057;47.830;-3.870;2022-08-11T23:23:44;3.07;;;2.60;;
15915;SDS011;8057;47.830;-3.870;2022-08-11T23:28:13;4.20;;;2.63;;
15915;SDS011;8057;47.830;-3.870;2022-08-11T23:32:41;3.80;;;2.80;;
15915;SDS011;8057;47.830;-3.870;2022-08-11T23:37:11;3.77;;;2.83;;
15915;SDS011;8057;47.830;-3.870;2022-08-11T23:41:41;3.27;;;2.97;;
15915;SDS011;8057;47.830;-3.870;2022-08-11T23:46:08;4.43;;;2.63;;
15915;SDS011;8057;47.830;-3.870;2022-08-11T23:50:34;3.23;;;2.73;;
15915;SDS011;8057;47.830;-3.870;2022-08-11T23:55:03;3.20;;;2.93;;
15915;SDS011;8057;47.830;-3.870;2022-08-11T23:59:30;6.97;;;2.93;;
